createdAt,value
2017-11-12T00:00:29.693Z,5.54
2017-11-12T00:02:57.327Z,5.58
2017-11-12T00:05:24.956Z,5.60
2017-11-12T00:07:52.557Z,5.66
2017-11-12T00:10:20.505Z,5.69
2017-11-12T00:12:48.124Z,5.54
2017-11-12T00:15:15.724Z,5.48
2017-11-12T00:17:43.373Z,5.42
2017-11-12T00:20:10.970Z,5.38
2017-11-12T00:22:38.629Z,5.34
2017-11-12T00:25:06.290Z,5.42
2017-11-12T00:27:33.887Z,5.31
2017-11-12T00:30:01.568Z,5.39
2017-11-12T00:32:29.173Z,5.37
2017-11-12T00:34:56.838Z,5.34
2017-11-12T00:37:24.506Z,5.33
2017-11-12T00:39:52.118Z,5.32
2017-11-12T00:42:19.770Z,5.41
2017-11-12T00:44:47.384Z,5.38
2017-11-12T00:47:14.983Z,5.25
2017-11-12T00:49:42.615Z,5.30
2017-11-12T00:52:10.230Z,5.23
2017-11-12T00:54:37.915Z,5.15
2017-11-12T00:57:05.538Z,5.24
2017-11-12T00:59:33.159Z,5.16
2017-11-12T01:02:00.830Z,4.99
2017-11-12T01:04:28.442Z,5.11
2017-11-12T01:06:56.073Z,5.03
2017-11-12T01:09:23.720Z,5.12
2017-11-12T01:11:51.671Z,5.07
2017-11-12T01:14:19.309Z,5.21
2017-11-12T01:16:46.911Z,5.24
2017-11-12T01:19:14.535Z,5.03
2017-11-12T01:21:42.137Z,5.03
2017-11-12T01:24:09.751Z,5.19
2017-11-12T01:26:37.382Z,5.18
2017-11-12T01:29:05.051Z,5.29
2017-11-12T01:34:06.687Z,5.24
2017-11-12T01:36:34.309Z,5.04
2017-11-12T01:39:02.210Z,5.15
2017-11-12T01:41:29.841Z,5.01
2017-11-12T01:43:57.509Z,5.05
2017-11-12T01:46:25.456Z,5.20
2017-11-12T01:48:53.082Z,5.20
2017-11-12T01:51:20.698Z,5.13
2017-11-12T01:53:48.304Z,5.06
2017-11-12T01:56:15.946Z,5.04
2017-11-12T01:58:43.537Z,5.09
2017-11-12T02:01:11.286Z,4.98
2017-11-12T02:03:38.913Z,5.03
2017-11-12T02:06:06.816Z,5.18
2017-11-12T02:08:34.455Z,5.12
2017-11-12T02:11:02.093Z,5.02
2017-11-12T02:13:29.725Z,5.00
2017-11-12T02:15:57.670Z,4.98
2017-11-12T02:18:25.258Z,4.99
2017-11-12T02:20:52.895Z,4.99
2017-11-12T02:23:20.492Z,4.84
2017-11-12T02:25:48.123Z,4.87
2017-11-12T02:28:15.738Z,4.81
2017-11-12T02:30:43.323Z,4.76
2017-11-12T02:33:10.942Z,4.70
2017-11-12T02:35:38.526Z,4.65
2017-11-12T02:38:06.542Z,4.62
2017-11-12T02:40:34.133Z,4.56
2017-11-12T02:43:02.067Z,4.66
2017-11-12T02:45:29.685Z,4.65
2017-11-12T02:47:58.213Z,4.65
2017-11-12T02:50:25.881Z,4.69
2017-11-12T02:52:53.482Z,4.62
2017-11-12T02:55:21.122Z,4.62
2017-11-12T02:57:48.766Z,4.60
2017-11-12T03:00:16.644Z,4.63
2017-11-12T03:02:44.604Z,4.53
2017-11-12T03:05:12.251Z,4.57
2017-11-12T03:07:39.854Z,4.65
2017-11-12T03:10:07.494Z,4.60
2017-11-12T03:12:35.076Z,4.59
2017-11-12T03:15:02.729Z,4.56
2017-11-12T03:17:30.378Z,4.58
2017-11-12T03:19:57.964Z,4.60
2017-11-12T03:22:25.582Z,4.62
2017-11-12T03:24:53.185Z,4.64
2017-11-12T03:27:20.845Z,4.63
2017-11-12T03:29:48.482Z,4.59
2017-11-12T03:32:16.142Z,4.53
2017-11-12T03:34:43.779Z,4.56
2017-11-12T03:37:11.422Z,4.60
2017-11-12T03:39:39.354Z,4.60
2017-11-12T03:42:07.317Z,4.58
2017-11-12T03:44:34.924Z,4.50
2017-11-12T03:47:02.540Z,4.52
2017-11-12T03:49:30.157Z,4.53
2017-11-12T03:51:57.802Z,4.49
2017-11-12T03:54:25.444Z,4.62
2017-11-12T03:56:53.039Z,4.56
2017-11-12T03:59:20.668Z,4.53
2017-11-12T04:01:48.519Z,4.55
2017-11-12T04:04:16.211Z,4.54
2017-11-12T04:06:44.157Z,4.47
2017-11-12T04:09:11.796Z,4.50
2017-11-12T04:11:39.452Z,4.56
2017-11-12T04:14:07.044Z,4.50
2017-11-12T04:16:34.673Z,4.53
2017-11-12T04:19:02.306Z,4.53
2017-11-12T04:21:29.908Z,4.51
2017-11-12T04:23:57.527Z,4.55
2017-11-12T04:26:25.160Z,4.49
2017-11-12T04:28:53.015Z,4.46
2017-11-12T04:31:20.634Z,4.40
2017-11-12T04:33:48.279Z,4.47
2017-11-12T04:36:15.868Z,4.50
2017-11-12T04:38:43.481Z,4.49
2017-11-12T04:41:11.083Z,4.49
2017-11-12T04:43:38.953Z,4.52
2017-11-12T04:46:06.551Z,4.58
2017-11-12T04:48:34.174Z,4.64
2017-11-12T04:51:01.803Z,4.63
2017-11-12T04:53:29.447Z,4.58
2017-11-12T04:55:57.930Z,4.62
2017-11-12T04:58:25.523Z,4.61
2017-11-12T05:00:53.118Z,4.51
2017-11-12T05:03:20.739Z,4.54
2017-11-12T05:05:48.334Z,4.48
2017-11-12T05:08:15.974Z,4.53
2017-11-12T05:10:43.904Z,4.47
2017-11-12T05:13:11.777Z,4.50
2017-11-12T05:15:39.402Z,4.40
2017-11-12T05:18:07.026Z,4.41
2017-11-12T05:20:34.685Z,4.44
2017-11-12T05:23:02.300Z,4.46
2017-11-12T05:25:30.209Z,4.44
2017-11-12T05:27:58.159Z,4.45
2017-11-12T05:30:25.754Z,4.41
2017-11-12T05:32:53.379Z,4.39
2017-11-12T05:35:21.014Z,4.39
2017-11-12T05:37:48.618Z,4.44
2017-11-12T05:40:16.257Z,4.39
2017-11-12T05:42:43.837Z,4.31
2017-11-12T05:45:11.798Z,4.30
2017-11-12T05:47:39.423Z,4.32
2017-11-12T05:50:07.006Z,4.29
2017-11-12T05:52:34.895Z,4.31
2017-11-12T05:55:02.505Z,4.28
2017-11-12T05:57:30.127Z,4.27
2017-11-12T05:59:57.728Z,4.31
2017-11-12T06:02:25.646Z,4.30
2017-11-12T06:04:53.514Z,4.30
2017-11-12T06:07:21.100Z,4.34
2017-11-12T06:09:49.042Z,4.34
2017-11-12T06:12:16.629Z,4.24
2017-11-12T06:14:44.218Z,4.23
2017-11-12T06:17:11.854Z,4.18
2017-11-12T06:19:39.441Z,4.17
2017-11-12T06:22:07.106Z,4.14
2017-11-12T06:24:34.696Z,4.17
2017-11-12T06:27:02.586Z,4.12
2017-11-12T06:29:30.205Z,4.09
2017-11-12T06:31:58.115Z,4.11
2017-11-12T06:34:25.759Z,4.12
2017-11-12T06:36:53.361Z,4.12
2017-11-12T06:39:20.941Z,4.22
2017-11-12T06:41:48.869Z,4.13
2017-11-12T06:44:16.465Z,4.05
2017-11-12T06:46:44.398Z,4.13
2017-11-12T06:49:12.061Z,4.11
2017-11-12T06:51:39.671Z,4.05
2017-11-12T06:54:07.292Z,4.09
2017-11-12T06:56:34.877Z,4.17
2017-11-12T06:59:02.818Z,4.11
2017-11-12T07:01:30.694Z,4.07
2017-11-12T07:03:58.413Z,4.11
2017-11-12T07:06:26.079Z,4.17
2017-11-12T07:08:53.647Z,4.10
2017-11-12T07:11:21.274Z,4.05
2017-11-12T07:13:49.205Z,4.11
2017-11-12T07:16:16.798Z,4.10
2017-11-12T07:18:44.402Z,4.15
2017-11-12T07:21:11.982Z,4.22
2017-11-12T07:23:39.617Z,4.35
2017-11-12T07:26:07.526Z,4.26
2017-11-12T07:28:35.390Z,4.34
2017-11-12T07:31:02.994Z,4.47
2017-11-12T07:33:30.594Z,4.48
2017-11-12T07:35:58.231Z,4.49
2017-11-12T07:38:25.809Z,4.56
2017-11-12T07:40:53.394Z,4.55
2017-11-12T07:43:21.040Z,4.61
2017-11-12T07:45:48.931Z,4.65
2017-11-12T07:48:16.594Z,4.64
2017-11-12T07:50:44.459Z,4.83
2017-11-12T07:53:12.062Z,4.71
2017-11-12T07:55:39.689Z,4.71
2017-11-12T07:58:07.278Z,4.74
2017-11-12T08:00:34.905Z,4.72
2017-11-12T08:03:02.557Z,4.68
2017-11-12T08:05:30.176Z,4.79
2017-11-12T08:07:57.801Z,4.89
2017-11-12T08:10:25.763Z,4.91
2017-11-12T08:12:53.388Z,4.87
2017-11-12T08:15:21.016Z,5.02
2017-11-12T08:17:48.646Z,5.09
2017-11-12T08:20:16.285Z,5.08
2017-11-12T08:22:43.898Z,5.20
2017-11-12T08:25:11.554Z,5.23
2017-11-12T08:27:39.170Z,5.36
2017-11-12T08:30:06.853Z,5.33
2017-11-12T08:32:34.529Z,5.37
2017-11-12T08:35:02.111Z,5.46
2017-11-12T08:37:48.252Z,5.52
2017-11-12T08:40:17.605Z,5.52
2017-11-12T08:42:45.278Z,5.57
2017-11-12T08:45:12.962Z,5.69
2017-11-12T08:47:40.573Z,5.57
2017-11-12T08:50:08.199Z,5.66
2017-11-12T08:52:35.798Z,5.55
2017-11-12T08:55:03.437Z,5.67
2017-11-12T08:57:31.097Z,5.76
2017-11-12T08:59:58.665Z,5.77
2017-11-12T09:02:26.310Z,5.83
2017-11-12T09:04:53.917Z,5.94
2017-11-12T09:07:21.585Z,6.03
2017-11-12T09:09:49.413Z,6.08
2017-11-12T09:12:17.007Z,6.06
2017-11-12T09:14:44.657Z,6.29
2017-11-12T09:17:12.253Z,6.23
2017-11-12T09:19:39.966Z,6.33
2017-11-12T09:22:08.200Z,6.31
2017-11-12T09:24:35.813Z,6.38
2017-11-12T09:27:03.467Z,6.33
2017-11-12T09:29:31.061Z,6.49
2017-11-12T09:31:58.698Z,6.29
2017-11-12T09:34:26.522Z,6.20
2017-11-12T09:36:54.467Z,6.28
2017-11-12T09:39:22.112Z,6.37
2017-11-12T09:41:49.998Z,6.40
2017-11-12T09:44:17.707Z,6.44
2017-11-12T09:46:45.314Z,6.54
2017-11-12T09:49:12.913Z,6.54
2017-11-12T09:51:40.552Z,6.62
2017-11-12T09:54:08.159Z,6.60
2017-11-12T09:56:36.072Z,6.61
2017-11-12T09:59:03.938Z,6.81
2017-11-12T10:01:31.545Z,6.83
2017-11-12T10:03:59.194Z,6.89
2017-11-12T10:06:26.819Z,6.85
2017-11-12T10:08:54.489Z,6.70
2017-11-12T10:11:22.102Z,6.64
2017-11-12T10:13:49.719Z,6.81
2017-11-12T10:16:17.357Z,6.83
2017-11-12T10:18:44.988Z,6.86
2017-11-12T10:23:47.289Z,6.88
2017-11-12T10:26:14.963Z,6.77
2017-11-12T10:28:42.604Z,6.79
2017-11-12T10:31:10.230Z,6.76
2017-11-12T10:33:37.901Z,6.91
2017-11-12T10:36:05.503Z,6.72
2017-11-12T10:38:33.967Z,6.61
2017-11-12T10:41:01.578Z,6.54
2017-11-12T10:43:29.286Z,6.62
2017-11-12T10:45:57.213Z,6.49
2017-11-12T10:48:24.809Z,6.47
2017-11-12T10:50:52.548Z,6.46
2017-11-12T10:53:20.148Z,6.43
2017-11-12T10:55:47.756Z,6.48
2017-11-12T10:58:15.390Z,6.36
2017-11-12T11:00:43.094Z,6.44
2017-11-12T11:03:10.743Z,6.58
2017-11-12T11:05:38.624Z,6.57
2017-11-12T11:08:06.214Z,6.67
2017-11-12T11:10:33.833Z,6.75
2017-11-12T11:13:01.433Z,7.04
2017-11-12T11:15:29.075Z,6.99
2017-11-12T11:17:56.737Z,7.04
2017-11-12T11:20:24.414Z,7.21
2017-11-12T11:22:52.071Z,7.29
2017-11-12T11:25:19.690Z,7.29
2017-11-12T11:27:47.383Z,7.41
2017-11-12T11:30:14.993Z,7.21
2017-11-12T11:32:42.609Z,6.88
2017-11-12T11:35:10.938Z,6.79
2017-11-12T11:37:38.526Z,6.94
2017-11-12T11:40:06.150Z,6.98
2017-11-12T11:42:33.741Z,6.94
2017-11-12T11:45:01.392Z,6.92
2017-11-12T11:47:29.030Z,7.04
2017-11-12T11:49:56.635Z,7.20
2017-11-12T11:52:24.257Z,7.43
2017-11-12T11:54:51.898Z,7.49
2017-11-12T11:57:19.882Z,7.54
2017-11-12T11:59:47.834Z,7.56
2017-11-12T12:02:15.427Z,7.63
2017-11-12T12:04:43.060Z,7.70
2017-11-12T12:07:10.683Z,7.69
2017-11-12T12:09:38.292Z,7.69
2017-11-12T12:12:05.903Z,7.66
2017-11-12T12:14:33.804Z,7.55
2017-11-12T12:17:01.428Z,7.56
2017-11-12T12:19:29.336Z,7.49
2017-11-12T12:21:56.913Z,7.57
2017-11-12T12:24:24.569Z,7.50
2017-11-12T12:26:52.180Z,7.39
2017-11-12T12:29:19.798Z,7.43
2017-11-12T12:31:47.382Z,7.36
2017-11-12T12:34:14.961Z,7.43
2017-11-12T12:36:42.629Z,7.37
2017-11-12T12:39:10.216Z,7.44
2017-11-12T12:41:38.193Z,7.40
2017-11-12T12:44:05.775Z,7.35
2017-11-12T12:46:33.415Z,7.24
2017-11-12T12:49:01.290Z,7.30
2017-11-12T12:51:28.891Z,7.27
2017-11-12T12:53:56.796Z,7.34
2017-11-12T12:56:24.436Z,7.37
2017-11-12T12:58:52.023Z,7.56
2017-11-12T13:01:19.595Z,7.55
2017-11-12T13:03:48.061Z,7.44
2017-11-12T13:06:15.670Z,7.42
2017-11-12T13:08:43.306Z,7.34
2017-11-12T13:11:11.277Z,7.24
2017-11-12T13:13:38.878Z,7.26
2017-11-12T13:16:06.525Z,7.30
2017-11-12T13:18:34.113Z,7.43
2017-11-12T13:21:01.740Z,7.43
2017-11-12T13:23:29.385Z,7.26
2017-11-12T13:25:56.987Z,7.25
2017-11-12T13:28:24.624Z,7.24
2017-11-12T13:30:52.257Z,7.30
2017-11-12T13:33:19.878Z,7.27
2017-11-12T13:35:47.486Z,7.32
2017-11-12T13:38:15.120Z,7.29
2017-11-12T13:40:42.731Z,7.25
2017-11-12T13:43:10.325Z,7.21
2017-11-12T13:45:37.982Z,7.15
2017-11-12T13:48:05.573Z,7.19
2017-11-12T13:50:33.157Z,6.98
2017-11-12T13:53:01.619Z,6.91
2017-11-12T13:55:29.528Z,6.79
2017-11-12T13:57:57.520Z,6.68
2017-11-12T14:00:25.143Z,6.69
2017-11-12T14:02:52.796Z,6.63
2017-11-12T14:05:20.405Z,6.70
2017-11-12T14:07:48.043Z,6.69
2017-11-12T14:10:15.681Z,6.67
2017-11-12T14:12:43.577Z,6.72
2017-11-12T14:15:11.186Z,6.79
2017-11-12T14:17:39.274Z,6.71
2017-11-12T14:20:06.874Z,6.70
2017-11-12T14:22:34.514Z,6.64
2017-11-12T14:25:02.115Z,6.64
2017-11-12T14:27:29.810Z,6.61
2017-11-12T14:29:57.424Z,6.60
2017-11-12T14:32:25.293Z,6.50
2017-11-12T14:34:52.935Z,6.46
2017-11-12T14:37:21.275Z,6.38
2017-11-12T14:39:48.905Z,6.42
2017-11-12T14:42:16.529Z,6.49
2017-11-12T14:44:44.107Z,6.49
2017-11-12T14:47:11.754Z,6.52
2017-11-12T14:49:39.376Z,6.51
2017-11-12T14:52:07.003Z,6.46
2017-11-12T14:54:34.981Z,6.47
2017-11-12T14:57:02.582Z,6.53
2017-11-12T14:59:30.489Z,6.57
2017-11-12T15:01:58.078Z,6.57
2017-11-12T15:04:25.688Z,6.48
2017-11-12T15:06:53.304Z,6.42
2017-11-12T15:09:20.891Z,6.41
2017-11-12T15:11:49.438Z,6.38
2017-11-12T15:14:17.301Z,6.35
2017-11-12T15:16:44.889Z,6.45
2017-11-12T15:19:12.499Z,6.44
2017-11-12T15:21:40.083Z,6.35
2017-11-12T15:24:07.721Z,6.30
2017-11-12T15:26:35.314Z,6.29
2017-11-12T15:29:02.906Z,6.28
2017-11-12T15:31:30.517Z,6.26
2017-11-12T15:33:58.434Z,6.27
2017-11-12T15:36:26.065Z,6.38
2017-11-12T15:38:53.705Z,6.31
2017-11-12T15:41:21.328Z,6.34
2017-11-12T15:43:48.958Z,6.36
2017-11-12T15:46:16.597Z,6.35
2017-11-12T15:48:44.216Z,6.40
2017-11-12T15:51:11.815Z,6.31
2017-11-12T15:53:39.421Z,6.29
2017-11-12T15:56:07.027Z,6.26
2017-11-12T15:58:34.625Z,6.32
2017-11-12T16:01:02.257Z,6.32
2017-11-12T16:03:29.841Z,6.34
2017-11-12T16:05:57.441Z,6.32
2017-11-12T16:08:25.130Z,6.34
2017-11-12T16:10:52.729Z,6.31
2017-11-12T16:13:20.356Z,6.34
2017-11-12T16:15:47.962Z,6.33
2017-11-12T16:18:15.828Z,6.38
2017-11-12T16:20:43.444Z,6.48
2017-11-12T16:23:11.047Z,6.51
2017-11-12T16:25:38.681Z,6.42
2017-11-12T16:28:06.658Z,6.31
2017-11-12T16:30:34.298Z,6.34
2017-11-12T16:33:01.918Z,6.33
2017-11-12T16:35:29.501Z,6.35
2017-11-12T16:37:57.139Z,6.39
2017-11-12T16:40:24.734Z,6.36
2017-11-12T16:42:52.353Z,6.38
2017-11-12T16:45:19.973Z,6.40
2017-11-12T16:47:47.609Z,6.47
2017-11-12T16:50:16.130Z,6.45
2017-11-12T16:52:43.726Z,6.52
2017-11-12T16:55:11.344Z,6.42
2017-11-12T16:57:38.998Z,6.44
2017-11-12T17:00:06.671Z,6.44
2017-11-12T17:02:34.326Z,6.43
2017-11-12T17:05:02.247Z,6.38
2017-11-12T17:07:29.842Z,6.44
2017-11-12T17:09:57.699Z,6.44
2017-11-12T17:12:25.299Z,6.43
2017-11-12T17:14:52.929Z,6.60
2017-11-12T17:17:20.555Z,6.59
2017-11-12T17:19:48.148Z,6.62
2017-11-12T17:22:15.799Z,6.62
2017-11-12T17:24:43.758Z,6.58
2017-11-12T17:27:11.415Z,6.52
2017-11-12T17:29:39.287Z,6.49
2017-11-12T17:32:06.880Z,6.47
2017-11-12T17:34:34.494Z,6.47
2017-11-12T17:37:02.091Z,6.46
2017-11-12T17:39:29.722Z,6.47
2017-11-12T17:41:57.313Z,6.48
2017-11-12T17:44:25.157Z,6.44
2017-11-12T17:46:52.792Z,6.44
2017-11-12T17:49:20.389Z,6.45
2017-11-12T17:51:48.039Z,6.46
2017-11-12T17:54:15.690Z,6.45
2017-11-12T17:56:43.582Z,6.42
2017-11-12T17:59:11.238Z,6.42
2017-11-12T18:01:38.865Z,6.43
2017-11-12T18:04:06.529Z,6.44
2017-11-12T18:06:34.164Z,6.44
2017-11-12T18:09:02.093Z,6.43
2017-11-12T18:11:29.750Z,6.46
2017-11-12T18:13:57.437Z,6.45
2017-11-12T18:16:25.085Z,6.45
2017-11-12T18:18:52.784Z,6.44
2017-11-12T18:21:20.385Z,6.43
2017-11-12T18:23:48.043Z,6.43
2017-11-12T18:26:15.664Z,6.44
2017-11-12T18:28:43.309Z,6.44
2017-11-12T18:31:10.899Z,6.44
2017-11-12T18:33:38.845Z,6.46
2017-11-12T18:36:06.710Z,6.48
2017-11-12T18:38:34.304Z,6.49
2017-11-12T18:41:02.235Z,6.51
2017-11-12T18:43:29.871Z,6.52
2017-11-12T18:45:57.511Z,6.53
2017-11-12T18:48:25.134Z,6.54
2017-11-12T18:50:53.901Z,6.58
2017-11-12T18:53:21.542Z,6.61
2017-11-12T18:55:49.131Z,6.58
2017-11-12T18:58:19.210Z,6.57
2017-11-12T19:00:52.506Z,6.56
2017-11-12T19:03:21.012Z,6.56
2017-11-12T19:05:54.169Z,6.56
2017-11-12T19:08:21.758Z,6.56
2017-11-12T19:10:49.378Z,6.56
2017-11-12T19:13:16.957Z,6.55
2017-11-12T19:15:44.653Z,6.55
2017-11-12T19:18:28.075Z,6.55
2017-11-12T19:20:57.249Z,6.59
2017-11-12T19:26:30.679Z,6.53
2017-11-12T19:28:59.157Z,6.47
2017-11-12T19:31:26.781Z,6.46
2017-11-12T19:33:54.358Z,6.49
2017-11-12T19:36:21.984Z,6.48
2017-11-12T19:38:49.628Z,6.48
2017-11-12T19:41:17.513Z,6.48
2017-11-12T19:43:45.165Z,6.48
2017-11-12T19:46:12.770Z,6.47
2017-11-12T19:48:40.358Z,6.47
2017-11-12T19:51:08.786Z,6.49
2017-11-12T19:53:36.371Z,6.52
2017-11-12T19:56:04.018Z,6.53
2017-11-12T19:58:31.606Z,6.55
2017-11-12T20:00:59.197Z,6.56
2017-11-12T20:03:26.809Z,6.55
2017-11-12T20:05:54.408Z,6.57
2017-11-12T20:08:22.198Z,6.56
2017-11-12T20:10:49.787Z,6.55
2017-11-12T20:13:17.379Z,6.56
2017-11-12T20:15:45.833Z,6.56
2017-11-12T20:18:13.430Z,6.55
2017-11-12T20:20:41.229Z,6.55
2017-11-12T20:23:08.824Z,6.56
2017-11-12T20:25:36.425Z,6.55
2017-11-12T20:28:04.045Z,6.55
2017-11-12T20:30:31.638Z,6.56
2017-11-12T20:32:59.275Z,6.57
2017-11-12T20:35:26.886Z,6.58
2017-11-12T20:37:54.480Z,6.57
2017-11-12T20:40:22.111Z,6.56
2017-11-12T20:42:49.776Z,6.57
2017-11-12T20:45:17.443Z,6.58
2017-11-12T20:47:45.235Z,6.55
2017-11-12T20:50:12.958Z,6.55
2017-11-12T20:52:42.446Z,6.56
2017-11-12T20:55:10.315Z,6.57
2017-11-12T20:57:37.969Z,6.57
2017-11-12T21:00:05.585Z,6.57
2017-11-12T21:02:33.354Z,6.57
2017-11-12T21:05:03.354Z,6.56
2017-11-12T21:07:30.997Z,6.55
2017-11-12T21:09:58.655Z,6.54
2017-11-12T21:12:26.274Z,6.52
2017-11-12T21:14:53.896Z,6.49
2017-11-12T21:17:22.070Z,6.49
2017-11-12T21:19:50.593Z,6.52
2017-11-12T21:22:28.940Z,6.49
2017-11-12T21:24:56.575Z,6.49
2017-11-12T21:27:27.002Z,6.48
2017-11-12T21:29:59.585Z,6.47
2017-11-12T21:32:27.719Z,6.48
2017-11-12T21:37:56.805Z,6.44
2017-11-12T21:40:24.411Z,6.46
2017-11-12T21:42:52.053Z,6.46
2017-11-12T21:45:19.625Z,6.47
2017-11-12T21:47:47.215Z,6.48
2017-11-12T21:50:14.847Z,6.48
2017-11-12T21:52:42.437Z,6.49
2017-11-12T21:55:14.971Z,6.50
2017-11-12T21:57:42.570Z,6.47
2017-11-12T22:00:10.188Z,6.47
2017-11-12T22:02:37.797Z,6.48
2017-11-12T22:05:05.389Z,6.46
2017-11-12T22:07:33.031Z,6.45
2017-11-12T22:10:01.453Z,6.43
2017-11-12T22:12:30.513Z,6.43
2017-11-12T22:14:58.231Z,6.40
2017-11-12T22:17:25.830Z,6.40
2017-11-12T22:19:53.488Z,6.39
2017-11-12T22:22:21.077Z,6.37
2017-11-12T22:24:48.665Z,6.38
2017-11-12T22:27:16.304Z,6.40
2017-11-12T22:29:43.958Z,6.40
2017-11-12T22:32:11.616Z,6.38
2017-11-12T22:34:39.220Z,6.35
2017-11-12T22:37:06.813Z,6.32
2017-11-12T22:39:34.440Z,6.31
2017-11-12T22:42:02.032Z,6.35
2017-11-12T22:44:29.694Z,6.33
2017-11-12T22:46:57.283Z,6.32
2017-11-12T22:49:24.891Z,6.32
2017-11-12T22:51:52.518Z,6.35
2017-11-12T22:54:20.118Z,6.32
2017-11-12T22:56:47.735Z,6.33
2017-11-12T22:59:15.355Z,6.33
2017-11-12T23:01:42.943Z,6.34
2017-11-12T23:04:10.521Z,6.31
2017-11-12T23:06:38.473Z,6.30
2017-11-12T23:09:06.052Z,6.28
2017-11-12T23:11:33.677Z,6.29
2017-11-12T23:14:01.283Z,6.28
2017-11-12T23:16:28.894Z,6.25
2017-11-12T23:18:56.552Z,6.33
2017-11-12T23:21:24.174Z,6.25
2017-11-12T23:23:51.783Z,6.23
2017-11-12T23:26:19.435Z,6.21
2017-11-12T23:28:47.016Z,6.22
2017-11-12T23:31:14.647Z,6.22
2017-11-12T23:33:42.244Z,6.21
2017-11-12T23:36:09.839Z,6.20
2017-11-12T23:38:37.471Z,6.20
2017-11-12T23:41:05.069Z,6.18
2017-11-12T23:43:33.013Z,6.17
2017-11-12T23:46:00.608Z,6.24
2017-11-12T23:48:28.198Z,6.20
2017-11-12T23:50:55.878Z,6.19
2017-11-12T23:53:23.508Z,6.19
2017-11-12T23:55:51.154Z,6.20
2017-11-12T23:58:18.821Z,6.16
